sensor_id;sensor_type;location;lat;lon;timestamp;noise_LAeq;noise_LA_min;noise_LA_max;noise_LA01;noise_LA95
72276;Laerm;61204;49.980;8.358;2024-01-30T00:00:23;50.28;44.41;55.37;;
72276;Laerm;61204;49.980;8.358;2024-01-30T00:02:50;50.21;44.00;57.04;;
72276;Laerm;61204;49.980;8.358;2024-01-30T00:05:18;50.58;45.06;59.34;;
72276;Laerm;61204;49.980;8.358;2024-01-30T00:07:44;50.52;43.97;60.01;;
72276;Laerm;61204;49.980;8.358;2024-01-30T00:10:09;51.12;44.77;72.23;;
72276;Laerm;61204;49.980;8.358;2024-01-30T00:12:35;51.00;45.72;57.34;;
72276;Laerm;61204;49.980;8.358;2024-01-30T00:15:03;51.07;46.51;56.44;;
72276;Laerm;61204;49.980;8.358;2024-01-30T00:17:30;49.56;44.29;56.09;;
72276;Laerm;61204;49.980;8.358;2024-01-30T00:19:56;48.66;42.99;54.82;;
72276;Laerm;61204;49.980;8.358;2024-01-30T00:22:21;50.61;44.93;54.92;;
72276;Laerm;61204;49.980;8.358;2024-01-30T00:24:47;48.42;42.82;53.75;;
72276;Laerm;61204;49.980;8.358;2024-01-30T00:27:13;48.93;43.76;56.78;;
72276;Laerm;61204;49.980;8.358;2024-01-30T00:29:41;50.42;45.21;55.94;;
72276;Laerm;61204;49.980;8.358;2024-01-30T00:32:07;51.27;44.57;66.14;;
72276;Laerm;61204;49.980;8.358;2024-01-30T00:34:34;49.69;39.95;59.70;;
72276;Laerm;61204;49.980;8.358;2024-01-30T00:37:00;50.79;45.20;61.18;;
72276;Laerm;61204;49.980;8.358;2024-01-30T00:39:25;49.32;42.98;56.17;;
72276;Laerm;61204;49.980;8.358;2024-01-30T00:41:56;49.66;44.70;54.12;;
72276;Laerm;61204;49.980;8.358;2024-01-30T00:44:21;49.45;44.72;54.90;;
72276;Laerm;61204;49.980;8.358;2024-01-30T00:46:49;49.91;44.72;56.94;;
72276;Laerm;61204;49.980;8.358;2024-01-30T00:49:15;50.01;42.76;56.92;;
72276;Laerm;61204;49.980;8.358;2024-01-30T00:51:40;50.14;44.39;57.76;;
72276;Laerm;61204;49.980;8.358;2024-01-30T00:54:06;49.57;43.97;55.84;;
72276;Laerm;61204;49.980;8.358;2024-01-30T00:56:32;48.05;42.46;54.56;;
72276;Laerm;61204;49.980;8.358;2024-01-30T00:58:58;48.21;43.73;55.98;;
72276;Laerm;61204;49.980;8.358;2024-01-30T01:01:24;49.68;44.32;58.53;;
72276;Laerm;61204;49.980;8.358;2024-01-30T01:03:52;50.66;43.81;61.94;;
72276;Laerm;61204;49.980;8.358;2024-01-30T01:06:20;48.23;43.32;52.27;;
72276;Laerm;61204;49.980;8.358;2024-01-30T01:08:45;50.43;44.58;60.88;;
72276;Laerm;61204;49.980;8.358;2024-01-30T01:11:13;49.59;43.29;58.55;;
72276;Laerm;61204;49.980;8.358;2024-01-30T01:13:41;48.12;41.61;55.50;;
72276;Laerm;61204;49.980;8.358;2024-01-30T01:16:07;45.83;41.22;49.86;;
72276;Laerm;61204;49.980;8.358;2024-01-30T01:18:32;48.39;43.09;52.59;;
72276;Laerm;61204;49.980;8.358;2024-01-30T01:21:00;48.12;41.95;56.00;;
72276;Laerm;61204;49.980;8.358;2024-01-30T01:23:26;48.48;42.72;53.51;;
72276;Laerm;61204;49.980;8.358;2024-01-30T01:25:52;48.52;43.92;53.61;;
72276;Laerm;61204;49.980;8.358;2024-01-30T01:28:17;49.59;42.99;54.67;;
72276;Laerm;61204;49.980;8.358;2024-01-30T01:30:46;48.25;43.29;54.05;;
72276;Laerm;61204;49.980;8.358;2024-01-30T01:33:11;47.53;42.68;51.81;;
72276;Laerm;61204;49.980;8.358;2024-01-30T01:35:39;46.81;42.08;51.55;;
72276;Laerm;61204;49.980;8.358;2024-01-30T01:38:05;48.26;43.40;53.04;;
72276;Laerm;61204;49.980;8.358;2024-01-30T01:40:31;49.48;42.08;56.20;;
72276;Laerm;61204;49.980;8.358;2024-01-30T01:42:56;48.65;43.34;55.17;;
72276;Laerm;61204;49.980;8.358;2024-01-30T01:45:23;49.02;43.40;55.61;;
72276;Laerm;61204;49.980;8.358;2024-01-30T01:47:52;50.16;43.29;62.00;;
72276;Laerm;61204;49.980;8.358;2024-01-30T01:50:20;49.06;43.49;56.60;;
72276;Laerm;61204;49.980;8.358;2024-01-30T01:52:51;48.40;43.06;53.05;;
72276;Laerm;61204;49.980;8.358;2024-01-30T01:55:20;51.17;44.08;58.85;;
72276;Laerm;61204;49.980;8.358;2024-01-30T01:57:53;47.33;42.45;55.32;;
72276;Laerm;61204;49.980;8.358;2024-01-30T02:00:20;49.09;43.99;54.03;;
72276;Laerm;61204;49.980;8.358;2024-01-30T02:02:49;47.28;41.59;53.41;;
72276;Laerm;61204;49.980;8.358;2024-01-30T02:05:16;47.86;41.66;55.15;;
72276;Laerm;61204;49.980;8.358;2024-01-30T02:07:43;48.63;44.02;54.93;;
72276;Laerm;61204;49.980;8.358;2024-01-30T02:10:11;48.83;43.53;52.50;;
72276;Laerm;61204;49.980;8.358;2024-01-30T02:12:37;48.09;43.41;55.86;;
72276;Laerm;61204;49.980;8.358;2024-01-30T02:15:04;51.07;44.25;61.65;;
72276;Laerm;61204;49.980;8.358;2024-01-30T02:17:31;50.47;45.72;56.11;;
72276;Laerm;61204;49.980;8.358;2024-01-30T02:19:56;49.86;44.96;53.90;;
72276;Laerm;61204;49.980;8.358;2024-01-30T02:22:23;49.25;44.47;53.86;;
72276;Laerm;61204;49.980;8.358;2024-01-30T02:24:49;48.53;43.99;54.85;;
72276;Laerm;61204;49.980;8.358;2024-01-30T02:27:17;49.42;44.39;57.10;;
72276;Laerm;61204;49.980;8.358;2024-01-30T02:29:43;49.70;46.08;53.46;;
72276;Laerm;61204;49.980;8.358;2024-01-30T02:32:11;50.12;45.24;57.13;;
72276;Laerm;61204;49.980;8.358;2024-01-30T02:34:36;50.38;45.21;55.48;;
72276;Laerm;61204;49.980;8.358;2024-01-30T02:37:04;50.10;45.65;54.45;;
72276;Laerm;61204;49.980;8.358;2024-01-30T02:39:30;50.81;45.98;54.48;;
72276;Laerm;61204;49.980;8.358;2024-01-30T02:41:55;49.15;44.09;54.26;;
72276;Laerm;61204;49.980;8.358;2024-01-30T02:44:21;51.73;45.07;62.90;;
72276;Laerm;61204;49.980;8.358;2024-01-30T02:46:47;50.99;46.68;57.69;;
72276;Laerm;61204;49.980;8.358;2024-01-30T02:49:15;51.64;47.08;55.96;;
72276;Laerm;61204;49.980;8.358;2024-01-30T02:51:40;51.05;47.42;57.63;;
72276;Laerm;61204;49.980;8.358;2024-01-30T02:54:06;51.21;46.76;58.31;;
72276;Laerm;61204;49.980;8.358;2024-01-30T02:56:31;51.67;46.77;55.86;;
72276;Laerm;61204;49.980;8.358;2024-01-30T02:58:57;52.67;47.41;56.39;;
72276;Laerm;61204;49.980;8.358;2024-01-30T03:01:22;51.57;45.98;56.19;;
72276;Laerm;61204;49.980;8.358;2024-01-30T03:03:50;50.77;46.30;55.50;;
72276;Laerm;61204;49.980;8.358;2024-01-30T03:06:15;52.12;48.22;57.14;;
72276;Laerm;61204;49.980;8.358;2024-01-30T03:08:43;50.33;46.11;54.52;;
72276;Laerm;61204;49.980;8.358;2024-01-30T03:11:10;51.59;47.47;57.59;;
72276;Laerm;61204;49.980;8.358;2024-01-30T03:13:38;52.43;48.70;56.90;;
72276;Laerm;61204;49.980;8.358;2024-01-30T03:16:05;50.86;46.13;56.00;;
72276;Laerm;61204;49.980;8.358;2024-01-30T03:18:30;50.94;46.48;54.73;;
72276;Laerm;61204;49.980;8.358;2024-01-30T03:20:56;49.32;45.43;57.25;;
72276;Laerm;61204;49.980;8.358;2024-01-30T03:23:23;53.90;45.69;67.67;;
72276;Laerm;61204;49.980;8.358;2024-01-30T03:25:49;50.51;46.54;54.95;;
72276;Laerm;61204;49.980;8.358;2024-01-30T03:28:15;50.83;45.54;55.07;;
72276;Laerm;61204;49.980;8.358;2024-01-30T03:30:40;51.67;47.57;63.75;;
72276;Laerm;61204;49.980;8.358;2024-01-30T03:33:08;52.10;48.48;56.40;;
72276;Laerm;61204;49.980;8.358;2024-01-30T03:35:34;53.51;48.76;58.18;;
72276;Laerm;61204;49.980;8.358;2024-01-30T03:37:59;51.76;48.24;56.03;;
72276;Laerm;61204;49.980;8.358;2024-01-30T03:40:25;51.62;47.35;61.15;;
72276;Laerm;61204;49.980;8.358;2024-01-30T03:42:53;52.84;47.89;62.33;;
72276;Laerm;61204;49.980;8.358;2024-01-30T03:45:18;52.73;47.99;57.88;;
72276;Laerm;61204;49.980;8.358;2024-01-30T03:47:45;52.71;48.87;56.87;;
72276;Laerm;61204;49.980;8.358;2024-01-30T03:50:13;51.18;46.92;55.40;;
72276;Laerm;61204;49.980;8.358;2024-01-30T03:52:39;50.26;46.60;54.37;;
72276;Laerm;61204;49.980;8.358;2024-01-30T03:55:05;50.26;45.41;54.20;;
72276;Laerm;61204;49.980;8.358;2024-01-30T03:57:33;50.99;46.75;54.49;;
72276;Laerm;61204;49.980;8.358;2024-01-30T03:59:58;52.08;47.46;58.69;;
72276;Laerm;61204;49.980;8.358;2024-01-30T04:02:24;50.78;47.82;53.96;;
72276;Laerm;61204;49.980;8.358;2024-01-30T04:04:50;51.21;48.14;54.93;;
72276;Laerm;61204;49.980;8.358;2024-01-30T04:07:15;52.47;48.01;57.73;;
72276;Laerm;61204;49.980;8.358;2024-01-30T04:09:41;51.70;47.42;55.13;;
72276;Laerm;61204;49.980;8.358;2024-01-30T04:12:08;51.52;48.12;54.74;;
72276;Laerm;61204;49.980;8.358;2024-01-30T04:14:34;51.71;48.67;54.66;;
72276;Laerm;61204;49.980;8.358;2024-01-30T04:17:00;52.53;49.21;55.78;;
72276;Laerm;61204;49.980;8.358;2024-01-30T04:19:26;52.77;49.00;60.03;;
72276;Laerm;61204;49.980;8.358;2024-01-30T04:21:51;52.34;49.27;55.69;;
72276;Laerm;61204;49.980;8.358;2024-01-30T04:24:17;54.38;51.03;58.60;;
72276;Laerm;61204;49.980;8.358;2024-01-30T04:26:44;53.88;50.35;57.38;;
72276;Laerm;61204;49.980;8.358;2024-01-30T04:29:14;54.64;51.56;58.75;;
72276;Laerm;61204;49.980;8.358;2024-01-30T04:31:39;54.30;50.65;58.03;;
72276;Laerm;61204;49.980;8.358;2024-01-30T04:34:05;53.83;49.79;57.66;;
72276;Laerm;61204;49.980;8.358;2024-01-30T04:36:33;53.61;50.07;57.00;;
72276;Laerm;61204;49.980;8.358;2024-01-30T04:38:58;54.32;50.37;61.73;;
72276;Laerm;61204;49.980;8.358;2024-01-30T04:41:24;53.13;50.50;56.11;;
72276;Laerm;61204;49.980;8.358;2024-01-30T04:43:53;53.62;49.55;63.67;;
72276;Laerm;61204;49.980;8.358;2024-01-30T04:46:21;52.46;48.81;60.82;;
72276;Laerm;61204;49.980;8.358;2024-01-30T04:48:47;52.15;49.10;57.15;;
72276;Laerm;61204;49.980;8.358;2024-01-30T04:51:12;53.52;49.89;62.76;;
72276;Laerm;61204;49.980;8.358;2024-01-30T04:53:38;52.51;49.17;55.97;;
72276;Laerm;61204;49.980;8.358;2024-01-30T04:56:05;53.62;50.03;60.93;;
72276;Laerm;61204;49.980;8.358;2024-01-30T04:58:33;54.54;51.19;60.14;;
72276;Laerm;61204;49.980;8.358;2024-01-30T05:00:59;55.71;50.34;63.93;;
72276;Laerm;61204;49.980;8.358;2024-01-30T05:03:27;54.13;50.91;57.66;;
72276;Laerm;61204;49.980;8.358;2024-01-30T05:05:55;54.72;52.02;61.41;;
72276;Laerm;61204;49.980;8.358;2024-01-30T05:08:25;54.80;51.08;60.26;;
72276;Laerm;61204;49.980;8.358;2024-01-30T05:10:51;55.46;51.46;58.88;;
72276;Laerm;61204;49.980;8.358;2024-01-30T05:13:17;55.95;51.83;61.72;;
72276;Laerm;61204;49.980;8.358;2024-01-30T05:15:42;56.27;53.41;59.01;;
72276;Laerm;61204;49.980;8.358;2024-01-30T05:18:08;56.16;52.76;58.53;;
72276;Laerm;61204;49.980;8.358;2024-01-30T05:20:33;56.72;53.86;62.77;;
72276;Laerm;61204;49.980;8.358;2024-01-30T05:22:59;56.78;53.31;60.64;;
72276;Laerm;61204;49.980;8.358;2024-01-30T05:25:24;58.25;54.97;64.75;;
72276;Laerm;61204;49.980;8.358;2024-01-30T05:27:50;57.38;53.41;65.11;;
72276;Laerm;61204;49.980;8.358;2024-01-30T05:30:18;57.62;53.51;63.41;;
72276;Laerm;61204;49.980;8.358;2024-01-30T05:32:46;55.97;52.97;59.05;;
72276;Laerm;61204;49.980;8.358;2024-01-30T05:35:11;55.29;52.34;57.74;;
72276;Laerm;61204;49.980;8.358;2024-01-30T05:37:37;56.69;53.21;61.53;;
72276;Laerm;61204;49.980;8.358;2024-01-30T05:40:03;56.42;53.62;59.93;;
72276;Laerm;61204;49.980;8.358;2024-01-30T05:42:29;57.14;54.48;61.29;;
72276;Laerm;61204;49.980;8.358;2024-01-30T05:44:55;57.71;54.26;61.24;;
72276;Laerm;61204;49.980;8.358;2024-01-30T05:47:20;58.02;54.93;63.39;;
72276;Laerm;61204;49.980;8.358;2024-01-30T05:49:46;57.71;54.66;63.58;;
72276;Laerm;61204;49.980;8.358;2024-01-30T05:52:12;56.74;53.57;62.72;;
72276;Laerm;61204;49.980;8.358;2024-01-30T05:54:40;56.44;52.91;63.56;;
72276;Laerm;61204;49.980;8.358;2024-01-30T05:57:06;56.40;52.40;61.24;;
72276;Laerm;61204;49.980;8.358;2024-01-30T05:59:32;55.78;51.86;60.88;;
72276;Laerm;61204;49.980;8.358;2024-01-30T06:01:57;55.11;51.74;59.38;;
72276;Laerm;61204;49.980;8.358;2024-01-30T06:04:23;55.67;52.57;61.82;;
72276;Laerm;61204;49.980;8.358;2024-01-30T06:06:49;54.99;52.08;61.49;;
72276;Laerm;61204;49.980;8.358;2024-01-30T06:09:17;56.61;52.36;63.74;;
72276;Laerm;61204;49.980;8.358;2024-01-30T06:11:42;55.06;51.44;60.26;;
72276;Laerm;61204;49.980;8.358;2024-01-30T06:14:08;54.71;51.52;60.37;;
72276;Laerm;61204;49.980;8.358;2024-01-30T06:16:33;54.14;51.36;56.76;;
72276;Laerm;61204;49.980;8.358;2024-01-30T06:18:59;54.62;50.66;59.49;;
72276;Laerm;61204;49.980;8.358;2024-01-30T06:21:25;54.55;51.08;61.13;;
72276;Laerm;61204;49.980;8.358;2024-01-30T06:23:53;55.74;52.04;60.08;;
72276;Laerm;61204;49.980;8.358;2024-01-30T06:26:21;55.55;51.03;61.99;;
72276;Laerm;61204;49.980;8.358;2024-01-30T06:28:49;53.19;49.95;62.08;;
72276;Laerm;61204;49.980;8.358;2024-01-30T06:31:14;55.83;49.85;63.12;;
72276;Laerm;61204;49.980;8.358;2024-01-30T06:33:40;54.79;49.67;65.48;;
72276;Laerm;61204;49.980;8.358;2024-01-30T06:36:07;54.92;48.62;63.24;;
72276;Laerm;61204;49.980;8.358;2024-01-30T06:38:33;52.60;49.02;60.83;;
72276;Laerm;61204;49.980;8.358;2024-01-30T06:40:58;52.81;48.92;62.07;;
72276;Laerm;61204;49.980;8.358;2024-01-30T06:43:24;55.16;49.25;63.58;;
72276;Laerm;61204;49.980;8.358;2024-01-30T06:45:52;54.84;48.22;62.39;;
72276;Laerm;61204;49.980;8.358;2024-01-30T06:48:17;51.96;47.79;60.97;;
72276;Laerm;61204;49.980;8.358;2024-01-30T06:50:45;52.80;49.17;59.60;;
72276;Laerm;61204;49.980;8.358;2024-01-30T06:53:11;53.05;48.45;67.92;;
72276;Laerm;61204;49.980;8.358;2024-01-30T06:55:37;51.63;47.90;57.98;;
72276;Laerm;61204;49.980;8.358;2024-01-30T06:58:02;51.69;48.05;64.16;;
72276;Laerm;61204;49.980;8.358;2024-01-30T07:00:33;51.42;48.12;61.96;;
72276;Laerm;61204;49.980;8.358;2024-01-30T07:03:02;52.23;48.84;61.93;;
72276;Laerm;61204;49.980;8.358;2024-01-30T07:05:27;53.60;48.55;62.23;;
72276;Laerm;61204;49.980;8.358;2024-01-30T07:07:55;51.74;48.64;58.33;;
72276;Laerm;61204;49.980;8.358;2024-01-30T07:10:23;54.03;48.95;63.84;;
72276;Laerm;61204;49.980;8.358;2024-01-30T07:12:48;53.79;49.21;61.67;;
72276;Laerm;61204;49.980;8.358;2024-01-30T07:15:14;52.74;49.22;58.15;;
72276;Laerm;61204;49.980;8.358;2024-01-30T07:17:47;53.01;49.81;57.89;;
72276;Laerm;61204;49.980;8.358;2024-01-30T07:20:14;53.15;49.88;56.49;;
72276;Laerm;61204;49.980;8.358;2024-01-30T07:22:40;54.73;51.98;59.54;;
72276;Laerm;61204;49.980;8.358;2024-01-30T07:25:08;56.36;52.71;62.60;;
72276;Laerm;61204;49.980;8.358;2024-01-30T07:27:34;56.89;52.84;63.78;;
72276;Laerm;61204;49.980;8.358;2024-01-30T07:30:00;55.05;51.59;62.19;;
72276;Laerm;61204;49.980;8.358;2024-01-30T07:32:25;55.56;52.55;62.07;;
72276;Laerm;61204;49.980;8.358;2024-01-30T07:34:51;56.00;52.11;63.42;;
72276;Laerm;61204;49.980;8.358;2024-01-30T07:37:16;56.60;52.90;63.04;;
72276;Laerm;61204;49.980;8.358;2024-01-30T07:39:42;56.64;53.12;63.88;;
72276;Laerm;61204;49.980;8.358;2024-01-30T07:42:08;56.28;52.16;62.79;;
72276;Laerm;61204;49.980;8.358;2024-01-30T07:44:34;56.12;52.51;60.44;;
72276;Laerm;61204;49.980;8.358;2024-01-30T07:46:59;56.23;52.07;59.88;;
72276;Laerm;61204;49.980;8.358;2024-01-30T07:49:25;57.43;53.20;62.95;;
72276;Laerm;61204;49.980;8.358;2024-01-30T07:51:53;58.03;52.68;77.22;;
72276;Laerm;61204;49.980;8.358;2024-01-30T07:54:18;57.21;52.88;62.33;;
72276;Laerm;61204;49.980;8.358;2024-01-30T07:56:44;56.92;52.97;61.83;;
72276;Laerm;61204;49.980;8.358;2024-01-30T07:59:11;56.42;53.30;62.41;;
72276;Laerm;61204;49.980;8.358;2024-01-30T08:01:39;56.80;53.58;62.84;;
72276;Laerm;61204;49.980;8.358;2024-01-30T08:04:05;56.16;52.92;61.84;;
72276;Laerm;61204;49.980;8.358;2024-01-30T08:06:31;57.71;53.55;69.81;;
72276;Laerm;61204;49.980;8.358;2024-01-30T08:08:58;56.93;53.87;68.35;;
72276;Laerm;61204;49.980;8.358;2024-01-30T08:11:27;57.68;54.18;62.77;;
72276;Laerm;61204;49.980;8.358;2024-01-30T08:13:57;56.95;53.49;62.28;;
72276;Laerm;61204;49.980;8.358;2024-01-30T08:16:22;55.85;51.97;61.83;;
72276;Laerm;61204;49.980;8.358;2024-01-30T08:18:48;57.56;53.01;69.17;;
72276;Laerm;61204;49.980;8.358;2024-01-30T08:21:14;55.03;52.25;60.28;;
72276;Laerm;61204;49.980;8.358;2024-01-30T08:23:39;55.65;52.12;65.38;;
72276;Laerm;61204;49.980;8.358;2024-01-30T08:26:05;54.78;50.70;65.47;;
72276;Laerm;61204;49.980;8.358;2024-01-30T08:28:35;55.26;50.58;66.48;;
72276;Laerm;61204;49.980;8.358;2024-01-30T08:31:01;58.05;51.91;66.97;;
72276;Laerm;61204;49.980;8.358;2024-01-30T08:33:27;55.85;51.18;65.39;;
72276;Laerm;61204;49.980;8.358;2024-01-30T08:35:52;54.44;50.93;63.10;;
72276;Laerm;61204;49.980;8.358;2024-01-30T08:38:18;55.78;51.53;68.04;;
72276;Laerm;61204;49.980;8.358;2024-01-30T08:40:44;54.96;51.60;63.05;;
72276;Laerm;61204;49.980;8.358;2024-01-30T08:43:09;55.34;51.44;62.63;;
72276;Laerm;61204;49.980;8.358;2024-01-30T08:45:35;54.73;51.69;63.48;;
72276;Laerm;61204;49.980;8.358;2024-01-30T08:48:01;55.95;51.77;64.27;;
72276;Laerm;61204;49.980;8.358;2024-01-30T08:50:26;55.18;51.41;61.63;;
72276;Laerm;61204;49.980;8.358;2024-01-30T08:52:54;55.54;52.06;62.56;;
72276;Laerm;61204;49.980;8.358;2024-01-30T08:55:20;56.18;52.47;71.71;;
72276;Laerm;61204;49.980;8.358;2024-01-30T08:57:45;55.44;51.74;60.44;;
72276;Laerm;61204;49.980;8.358;2024-01-30T09:00:12;56.06;51.98;62.23;;
72276;Laerm;61204;49.980;8.358;2024-01-30T09:02:38;55.84;50.99;65.76;;
72276;Laerm;61204;49.980;8.358;2024-01-30T09:05:04;55.83;51.57;71.10;;
72276;Laerm;61204;49.980;8.358;2024-01-30T09:07:29;54.16;51.04;58.66;;
72276;Laerm;61204;49.980;8.358;2024-01-30T09:09:57;54.51;51.64;59.54;;
72276;Laerm;61204;49.980;8.358;2024-01-30T09:12:23;54.50;50.55;61.97;;
72276;Laerm;61204;49.980;8.358;2024-01-30T09:14:51;55.58;50.98;65.17;;
72276;Laerm;61204;49.980;8.358;2024-01-30T09:17:16;54.27;51.27;60.77;;
72276;Laerm;61204;49.980;8.358;2024-01-30T09:19:43;54.48;50.61;61.97;;
72276;Laerm;61204;49.980;8.358;2024-01-30T09:22:11;54.75;50.63;66.77;;
72276;Laerm;61204;49.980;8.358;2024-01-30T09:24:36;58.89;51.03;68.04;;
72276;Laerm;61204;49.980;8.358;2024-01-30T09:27:02;60.15;51.89;77.28;;
72276;Laerm;61204;49.980;8.358;2024-01-30T09:29:28;57.57;50.94;69.89;;
72276;Laerm;61204;49.980;8.358;2024-01-30T09:31:55;57.83;51.13;82.41;;
72276;Laerm;61204;49.980;8.358;2024-01-30T09:34:21;58.67;51.51;70.30;;
72276;Laerm;61204;49.980;8.358;2024-01-30T09:36:46;58.88;49.54;70.12;;
72276;Laerm;61204;49.980;8.358;2024-01-30T09:39:12;57.58;49.95;71.70;;
72276;Laerm;61204;49.980;8.358;2024-01-30T09:44:30;55.37;49.55;69.10;;
72276;Laerm;61204;49.980;8.358;2024-01-30T09:46:56;54.91;49.56;68.43;;
72276;Laerm;61204;49.980;8.358;2024-01-30T09:49:32;54.03;49.41;62.72;;
72276;Laerm;61204;49.980;8.358;2024-01-30T09:51:58;56.64;48.86;82.92;;
72276;Laerm;61204;49.980;8.358;2024-01-30T09:54:29;59.81;49.45;83.28;;
72276;Laerm;61204;49.980;8.358;2024-01-30T09:56:55;54.86;50.32;61.89;;
72276;Laerm;61204;49.980;8.358;2024-01-30T09:59:21;52.10;48.30;58.05;;
72276;Laerm;61204;49.980;8.358;2024-01-30T10:01:50;57.67;49.09;72.80;;
72276;Laerm;61204;49.980;8.358;2024-01-30T10:04:17;52.62;49.31;69.52;;
72276;Laerm;61204;49.980;8.358;2024-01-30T10:06:42;53.58;48.35;61.36;;
72276;Laerm;61204;49.980;8.358;2024-01-30T10:09:08;51.23;48.27;55.74;;
72276;Laerm;61204;49.980;8.358;2024-01-30T10:11:36;53.11;47.97;63.42;;
72276;Laerm;61204;49.980;8.358;2024-01-30T10:14:04;57.23;48.54;66.90;;
72276;Laerm;61204;49.980;8.358;2024-01-30T10:16:30;54.85;50.53;60.72;;
72276;Laerm;61204;49.980;8.358;2024-01-30T10:18:55;57.67;50.93;65.24;;
72276;Laerm;61204;49.980;8.358;2024-01-30T10:21:22;54.51;49.85;61.52;;
72276;Laerm;61204;49.980;8.358;2024-01-30T10:23:50;54.27;49.53;64.98;;
72276;Laerm;61204;49.980;8.358;2024-01-30T10:26:18;53.85;49.12;66.24;;
72276;Laerm;61204;49.980;8.358;2024-01-30T10:28:48;52.89;48.75;60.75;;
72276;Laerm;61204;49.980;8.358;2024-01-30T10:31:18;59.52;49.57;71.02;;
72276;Laerm;61204;49.980;8.358;2024-01-30T10:33:48;54.46;49.02;63.69;;
72276;Laerm;61204;49.980;8.358;2024-01-30T10:36:17;54.30;49.78;62.11;;
72276;Laerm;61204;49.980;8.358;2024-01-30T10:38:44;54.47;50.61;61.21;;
72276;Laerm;61204;49.980;8.358;2024-01-30T10:41:14;54.76;48.56;65.68;;
72276;Laerm;61204;49.980;8.358;2024-01-30T10:44:02;52.99;49.13;61.67;;
72276;Laerm;61204;49.980;8.358;2024-01-30T10:46:38;52.63;48.55;58.96;;
72276;Laerm;61204;49.980;8.358;2024-01-30T10:49:04;54.45;48.87;69.59;;
72276;Laerm;61204;49.980;8.358;2024-01-30T10:51:32;55.07;49.03;66.42;;
72276;Laerm;61204;49.980;8.358;2024-01-30T10:54:01;56.51;48.77;66.36;;
72276;Laerm;61204;49.980;8.358;2024-01-30T10:56:29;54.93;48.67;72.78;;
72276;Laerm;61204;49.980;8.358;2024-01-30T10:58:55;54.51;48.57;79.03;;
72276;Laerm;61204;49.980;8.358;2024-01-30T11:01:22;54.27;48.91;60.85;;
72276;Laerm;61204;49.980;8.358;2024-01-30T11:03:54;53.47;48.35;61.22;;
72276;Laerm;61204;49.980;8.358;2024-01-30T11:06:27;51.05;47.19;62.29;;
72276;Laerm;61204;49.980;8.358;2024-01-30T11:09:10;52.07;47.10;60.15;;
72276;Laerm;61204;49.980;8.358;2024-01-30T11:11:58;54.17;47.56;76.89;;
72276;Laerm;61204;49.980;8.358;2024-01-30T11:14:30;65.78;45.96;88.43;;
72276;Laerm;61204;49.980;8.358;2024-01-30T11:16:59;49.72;46.30;73.22;;
72276;Laerm;61204;49.980;8.358;2024-01-30T11:19:27;53.84;47.15;63.56;;
72276;Laerm;61204;49.980;8.358;2024-01-30T11:21:54;50.44;47.39;64.78;;
72276;Laerm;61204;49.980;8.358;2024-01-30T11:24:23;52.41;47.62;61.22;;
72276;Laerm;61204;49.980;8.358;2024-01-30T11:26:57;54.53;48.89;75.42;;
72276;Laerm;61204;49.980;8.358;2024-01-30T11:29:29;53.12;49.05;60.49;;
72276;Laerm;61204;49.980;8.358;2024-01-30T11:31:58;52.59;47.43;59.97;;
72276;Laerm;61204;49.980;8.358;2024-01-30T11:34:26;54.55;47.37;64.74;;
72276;Laerm;61204;49.980;8.358;2024-01-30T11:36:59;54.34;50.36;66.60;;
72276;Laerm;61204;49.980;8.358;2024-01-30T11:39:26;54.10;50.07;63.35;;
72276;Laerm;61204;49.980;8.358;2024-01-30T11:41:53;53.38;49.59;60.31;;
72276;Laerm;61204;49.980;8.358;2024-01-30T11:44:20;52.40;48.05;56.82;;
72276;Laerm;61204;49.980;8.358;2024-01-30T11:46:52;53.28;49.62;60.17;;
72276;Laerm;61204;49.980;8.358;2024-01-30T11:49:20;54.97;49.57;64.65;;
72276;Laerm;61204;49.980;8.358;2024-01-30T11:51:46;52.21;48.53;56.85;;
72276;Laerm;61204;49.980;8.358;2024-01-30T11:54:15;53.73;49.92;65.83;;
72276;Laerm;61204;49.980;8.358;2024-01-30T11:56:43;54.70;49.78;64.05;;
72276;Laerm;61204;49.980;8.358;2024-01-30T11:59:09;61.21;47.99;76.20;;
72276;Laerm;61204;49.980;8.358;2024-01-30T12:01:36;52.77;48.44;64.08;;
72276;Laerm;61204;49.980;8.358;2024-01-30T12:04:01;53.23;47.95;61.86;;
72276;Laerm;61204;49.980;8.358;2024-01-30T12:06:28;52.08;48.01;57.92;;
72276;Laerm;61204;49.980;8.358;2024-01-30T12:08:59;52.75;47.54;62.92;;
72276;Laerm;61204;49.980;8.358;2024-01-30T12:11:27;51.72;47.41;58.87;;
72276;Laerm;61204;49.980;8.358;2024-01-30T12:13:56;52.61;47.65;60.33;;
72276;Laerm;61204;49.980;8.358;2024-01-30T12:16:22;51.62;48.39;59.02;;
72276;Laerm;61204;49.980;8.358;2024-01-30T12:18:48;51.35;47.67;60.95;;
72276;Laerm;61204;49.980;8.358;2024-01-30T12:21:17;49.17;45.49;65.29;;
72276;Laerm;61204;49.980;8.358;2024-01-30T12:23:44;50.14;44.50;64.64;;
72276;Laerm;61204;49.980;8.358;2024-01-30T12:26:10;52.14;44.96;69.80;;
72276;Laerm;61204;49.980;8.358;2024-01-30T12:28:36;50.01;46.47;57.13;;
72276;Laerm;61204;49.980;8.358;2024-01-30T12:31:03;51.43;47.45;65.25;;
72276;Laerm;61204;49.980;8.358;2024-01-30T12:33:30;51.63;47.53;62.08;;
72276;Laerm;61204;49.980;8.358;2024-01-30T12:36:01;53.58;46.92;62.78;;
72276;Laerm;61204;49.980;8.358;2024-01-30T12:38:27;50.79;46.85;57.47;;
72276;Laerm;61204;49.980;8.358;2024-01-30T12:40:56;52.23;46.75;59.49;;
72276;Laerm;61204;49.980;8.358;2024-01-30T12:43:23;52.07;46.59;66.82;;
72276;Laerm;61204;49.980;8.358;2024-01-30T12:45:50;53.50;48.27;61.97;;
72276;Laerm;61204;49.980;8.358;2024-01-30T12:48:16;53.70;48.20;62.82;;
72276;Laerm;61204;49.980;8.358;2024-01-30T12:50:42;52.46;47.46;62.64;;
72276;Laerm;61204;49.980;8.358;2024-01-30T12:53:07;54.21;45.52;65.04;;
72276;Laerm;61204;49.980;8.358;2024-01-30T12:55:34;52.51;46.35;61.85;;
72276;Laerm;61204;49.980;8.358;2024-01-30T12:58:00;52.48;47.79;61.14;;
72276;Laerm;61204;49.980;8.358;2024-01-30T13:00:26;53.95;47.30;61.85;;
72276;Laerm;61204;49.980;8.358;2024-01-30T13:02:52;53.96;48.95;60.13;;
72276;Laerm;61204;49.980;8.358;2024-01-30T13:05:18;55.31;49.40;62.25;;
72276;Laerm;61204;49.980;8.358;2024-01-30T13:07:46;54.22;49.81;63.46;;
72276;Laerm;61204;49.980;8.358;2024-01-30T13:10:12;54.24;49.37;75.74;;
72276;Laerm;61204;49.980;8.358;2024-01-30T13:12:38;54.51;49.01;66.25;;
72276;Laerm;61204;49.980;8.358;2024-01-30T13:15:06;52.89;49.17;62.65;;
72276;Laerm;61204;49.980;8.358;2024-01-30T13:17:32;54.75;49.39;61.62;;
72276;Laerm;61204;49.980;8.358;2024-01-30T13:19:58;52.29;49.13;59.44;;
72276;Laerm;61204;49.980;8.358;2024-01-30T13:22:24;52.97;49.71;58.82;;
72276;Laerm;61204;49.980;8.358;2024-01-30T13:24:50;54.38;49.06;83.15;;
72276;Laerm;61204;49.980;8.358;2024-01-30T13:27:16;53.71;49.97;70.02;;
72276;Laerm;61204;49.980;8.358;2024-01-30T13:29:42;52.81;49.49;59.24;;
72276;Laerm;61204;49.980;8.358;2024-01-30T13:32:08;53.27;49.75;66.13;;
72276;Laerm;61204;49.980;8.358;2024-01-30T13:34:33;53.55;49.19;60.09;;
72276;Laerm;61204;49.980;8.358;2024-01-30T13:37:01;52.88;49.88;56.65;;
72276;Laerm;61204;49.980;8.358;2024-01-30T13:39:27;53.62;49.78;59.75;;
72276;Laerm;61204;49.980;8.358;2024-01-30T13:41:54;54.26;49.55;64.57;;
72276;Laerm;61204;49.980;8.358;2024-01-30T13:44:20;53.88;49.45;62.74;;